sensor_id;sensor_type;location;lat;lon;timestamp;P1;durP1;ratioP1;P2;durP2;ratioP2
5454;SDS011;2750;49.050;9.250;2022-08-02T00:03:43;2.63;;;2.43;;
5454;SDS011;2750;49.050;9.250;2022-08-02T00:08:44;4.53;;;2.50;;
5454;SDS011;2750;49.050;9.250;2022-08-02T00:13:46;2.73;;;2.47;;
5454;SDS011;2750;49.050;9.250;2022-08-02T00:18:49;4.80;;;2.57;;
5454;SDS011;2750;49.050;9.250;2022-08-02T00:23:50;2.70;;;2.27;;
5454;SDS011;2750;49.050;9.250;2022-08-02T00:28:52;3.67;;;2.97;;
5454;SDS011;2750;49.050;9.250;2022-08-02T00:33:55;3.07;;;2.43;;
5454;SDS011;2750;49.050;9.250;2022-08-02T00:38:56;3.20;;;2.77;;
5454;SDS011;2750;49.050;9.250;2022-08-02T00:43:58;2.87;;;2.50;;
5454;SDS011;2750;49.050;9.250;2022-08-02T00:49:01;2.70;;;2.43;;
5454;SDS011;2750;49.050;9.250;2022-08-02T00:54:02;3.23;;;2.23;;
5454;SDS011;2750;49.050;9.250;2022-08-02T00:59:04;3.47;;;2.43;;
5454;SDS011;2750;49.050;9.250;2022-08-02T01:04:08;3.50;;;2.07;;
5454;SDS011;2750;49.050;9.250;2022-08-02T01:09:11;4.00;;;2.33;;
5454;SDS011;2750;49.050;9.250;2022-08-02T01:14:12;3.60;;;2.47;;
5454;SDS011;2750;49.050;9.250;2022-08-02T01:19:23;6.60;;;2.23;;
5454;SDS011;2750;49.050;9.250;2022-08-02T01:24:36;2.27;;;2.00;;
5454;SDS011;2750;49.050;9.250;2022-08-02T01:29:57;3.20;;;2.30;;
5454;SDS011;2750;49.050;9.250;2022-08-02T01:35:02;2.57;;;2.10;;
5454;SDS011;2750;49.050;9.250;2022-08-02T01:40:10;3.20;;;2.20;;
5454;SDS011;2750;49.050;9.250;2022-08-02T01:45:15;2.70;;;2.50;;
5454;SDS011;2750;49.050;9.250;2022-08-02T01:50:20;3.33;;;2.77;;
5454;SDS011;2750;49.050;9.250;2022-08-02T01:55:26;4.33;;;2.53;;
5454;SDS011;2750;49.050;9.250;2022-08-02T02:00:42;2.77;;;2.57;;
5454;SDS011;2750;49.050;9.250;2022-08-02T02:05:46;3.90;;;2.60;;
5454;SDS011;2750;49.050;9.250;2022-08-02T02:10:50;2.73;;;2.47;;
5454;SDS011;2750;49.050;9.250;2022-08-02T02:15:55;3.77;;;2.90;;
5454;SDS011;2750;49.050;9.250;2022-08-02T02:21:02;5.60;;;2.80;;
5454;SDS011;2750;49.050;9.250;2022-08-02T02:26:04;3.63;;;2.40;;
5454;SDS011;2750;49.050;9.250;2022-08-02T02:31:08;3.93;;;2.80;;
5454;SDS011;2750;49.050;9.250;2022-08-02T02:36:12;4.93;;;3.00;;
5454;SDS011;2750;49.050;9.250;2022-08-02T02:41:16;4.67;;;2.70;;
5454;SDS011;2750;49.050;9.250;2022-08-02T02:46:20;2.90;;;2.43;;
5454;SDS011;2750;49.050;9.250;2022-08-02T02:51:22;3.43;;;3.13;;
5454;SDS011;2750;49.050;9.250;2022-08-02T02:56:24;4.00;;;3.00;;
5454;SDS011;2750;49.050;9.250;2022-08-02T03:01:27;3.10;;;2.80;;
5454;SDS011;2750;49.050;9.250;2022-08-02T03:06:30;4.37;;;3.00;;
5454;SDS011;2750;49.050;9.250;2022-08-02T03:11:32;5.27;;;3.20;;
5454;SDS011;2750;49.050;9.250;2022-08-02T03:16:42;3.63;;;2.70;;
5454;SDS011;2750;49.050;9.250;2022-08-02T03:21:45;3.10;;;2.90;;
5454;SDS011;2750;49.050;9.250;2022-08-02T03:26:47;3.47;;;3.10;;
5454;SDS011;2750;49.050;9.250;2022-08-02T03:31:50;3.20;;;2.90;;
5454;SDS011;2750;49.050;9.250;2022-08-02T03:36:53;5.17;;;3.37;;
5454;SDS011;2750;49.050;9.250;2022-08-02T03:41:56;3.33;;;2.90;;
5454;SDS011;2750;49.050;9.250;2022-08-02T03:46:59;3.97;;;2.70;;
5454;SDS011;2750;49.050;9.250;2022-08-02T03:52:02;5.93;;;3.43;;
5454;SDS011;2750;49.050;9.250;2022-08-02T03:57:04;3.80;;;3.30;;
5454;SDS011;2750;49.050;9.250;2022-08-02T04:02:07;4.10;;;3.70;;
5454;SDS011;2750;49.050;9.250;2022-08-02T04:07:09;3.33;;;3.03;;
5454;SDS011;2750;49.050;9.250;2022-08-02T04:12:10;3.83;;;3.50;;
5454;SDS011;2750;49.050;9.250;2022-08-02T04:17:13;3.73;;;3.40;;
5454;SDS011;2750;49.050;9.250;2022-08-02T04:22:26;3.57;;;3.20;;
5454;SDS011;2750;49.050;9.250;2022-08-02T04:27:31;3.13;;;2.83;;
5454;SDS011;2750;49.050;9.250;2022-08-02T04:32:36;5.50;;;3.00;;
5454;SDS011;2750;49.050;9.250;2022-08-02T04:37:38;8.43;;;3.23;;
5454;SDS011;2750;49.050;9.250;2022-08-02T04:42:40;4.67;;;3.47;;
5454;SDS011;2750;49.050;9.250;2022-08-02T04:47:43;5.33;;;3.30;;
5454;SDS011;2750;49.050;9.250;2022-08-02T04:52:45;4.67;;;3.20;;
5454;SDS011;2750;49.050;9.250;2022-08-02T04:57:46;4.37;;;3.10;;
5454;SDS011;2750;49.050;9.250;2022-08-02T05:02:58;4.20;;;3.30;;
5454;SDS011;2750;49.050;9.250;2022-08-02T05:08:00;4.07;;;3.35;;
5454;SDS011;2750;49.050;9.250;2022-08-02T05:13:03;3.50;;;3.20;;
5454;SDS011;2750;49.050;9.250;2022-08-02T05:18:07;3.08;;;2.88;;
5454;SDS011;2750;49.050;9.250;2022-08-02T05:23:08;3.67;;;3.33;;
5454;SDS011;2750;49.050;9.250;2022-08-02T05:28:10;3.55;;;3.17;;
5454;SDS011;2750;49.050;9.250;2022-08-02T05:33:13;5.22;;;3.55;;
5454;SDS011;2750;49.050;9.250;2022-08-02T05:38:14;5.05;;;3.80;;
5454;SDS011;2750;49.050;9.250;2022-08-02T05:43:16;4.05;;;3.65;;
5454;SDS011;2750;49.050;9.250;2022-08-02T05:48:19;6.22;;;3.50;;
5454;SDS011;2750;49.050;9.250;2022-08-02T05:53:23;3.88;;;3.30;;
5454;SDS011;2750;49.050;9.250;2022-08-02T05:58:35;5.20;;;3.67;;
5454;SDS011;2750;49.050;9.250;2022-08-02T06:03:47;4.07;;;3.67;;
5454;SDS011;2750;49.050;9.250;2022-08-02T06:08:53;3.95;;;3.65;;
5454;SDS011;2750;49.050;9.250;2022-08-02T06:13:58;4.90;;;4.07;;
5454;SDS011;2750;49.050;9.250;2022-08-02T06:19:02;6.22;;;3.45;;
5454;SDS011;2750;49.050;9.250;2022-08-02T06:24:04;4.50;;;4.10;;
5454;SDS011;2750;49.050;9.250;2022-08-02T06:29:08;5.00;;;4.22;;
5454;SDS011;2750;49.050;9.250;2022-08-02T06:34:12;7.00;;;4.60;;
5454;SDS011;2750;49.050;9.250;2022-08-02T06:39:15;5.57;;;5.07;;
5454;SDS011;2750;49.050;9.250;2022-08-02T06:44:22;5.47;;;4.97;;
5454;SDS011;2750;49.050;9.250;2022-08-02T06:49:25;6.22;;;5.63;;
5454;SDS011;2750;49.050;9.250;2022-08-02T06:54:26;5.80;;;5.30;;
5454;SDS011;2750;49.050;9.250;2022-08-02T06:59:28;5.95;;;5.40;;
5454;SDS011;2750;49.050;9.250;2022-08-02T07:04:31;8.40;;;5.10;;
5454;SDS011;2750;49.050;9.250;2022-08-02T07:09:33;6.97;;;5.47;;
5454;SDS011;2750;49.050;9.250;2022-08-02T07:14:35;5.22;;;4.70;;
5454;SDS011;2750;49.050;9.250;2022-08-02T07:19:38;5.18;;;4.68;;
5454;SDS011;2750;49.050;9.250;2022-08-02T07:24:39;5.47;;;4.97;;
5454;SDS011;2750;49.050;9.250;2022-08-02T07:29:41;6.55;;;4.43;;
5454;SDS011;2750;49.050;9.250;2022-08-02T07:34:44;5.40;;;4.53;;
5454;SDS011;2750;49.050;9.250;2022-08-02T07:39:46;5.57;;;4.95;;
5454;SDS011;2750;49.050;9.250;2022-08-02T07:44:48;4.78;;;4.35;;
5454;SDS011;2750;49.050;9.250;2022-08-02T07:49:51;5.63;;;4.45;;
5454;SDS011;2750;49.050;9.250;2022-08-02T07:54:53;4.72;;;4.22;;
5454;SDS011;2750;49.050;9.250;2022-08-02T07:59:54;4.65;;;4.35;;
5454;SDS011;2750;49.050;9.250;2022-08-02T08:04:57;4.30;;;4.00;;
5454;SDS011;2750;49.050;9.250;2022-08-02T08:09:58;5.32;;;4.82;;
5454;SDS011;2750;49.050;9.250;2022-08-02T08:15:00;4.63;;;4.22;;
5454;SDS011;2750;49.050;9.250;2022-08-02T08:20:03;4.40;;;4.07;;
5454;SDS011;2750;49.050;9.250;2022-08-02T08:25:06;4.13;;;3.72;;
5454;SDS011;2750;49.050;9.250;2022-08-02T08:30:08;4.43;;;3.95;;
5454;SDS011;2750;49.050;9.250;2022-08-02T08:35:12;4.38;;;3.97;;
5454;SDS011;2750;49.050;9.250;2022-08-02T08:40:14;4.53;;;4.13;;
5454;SDS011;2750;49.050;9.250;2022-08-02T08:45:16;4.50;;;4.18;;
5454;SDS011;2750;49.050;9.250;2022-08-02T08:50:19;4.10;;;3.80;;
5454;SDS011;2750;49.050;9.250;2022-08-02T08:55:25;3.78;;;3.55;;
5454;SDS011;2750;49.050;9.250;2022-08-02T09:00:29;3.30;;;3.05;;
5454;SDS011;2750;49.050;9.250;2022-08-02T09:05:34;3.88;;;3.58;;
5454;SDS011;2750;49.050;9.250;2022-08-02T09:10:37;4.50;;;3.97;;
5454;SDS011;2750;49.050;9.250;2022-08-02T09:15:41;4.75;;;3.33;;
5454;SDS011;2750;49.050;9.250;2022-08-02T09:20:52;3.40;;;3.10;;
5454;SDS011;2750;49.050;9.250;2022-08-02T09:25:57;4.45;;;3.53;;
5454;SDS011;2750;49.050;9.250;2022-08-02T09:31:04;3.50;;;3.28;;
5454;SDS011;2750;49.050;9.250;2022-08-02T09:36:08;3.40;;;3.10;;
5454;SDS011;2750;49.050;9.250;2022-08-02T09:41:18;4.50;;;4.10;;
5454;SDS011;2750;49.050;9.250;2022-08-02T09:46:21;3.92;;;3.63;;
5454;SDS011;2750;49.050;9.250;2022-08-02T09:51:26;3.53;;;3.30;;
5454;SDS011;2750;49.050;9.250;2022-08-02T09:56:38;4.50;;;3.90;;
5454;SDS011;2750;49.050;9.250;2022-08-02T10:01:41;3.70;;;3.40;;
5454;SDS011;2750;49.050;9.250;2022-08-02T10:06:46;3.85;;;3.55;;
5454;SDS011;2750;49.050;9.250;2022-08-02T10:11:49;5.20;;;3.42;;
5454;SDS011;2750;49.050;9.250;2022-08-02T10:16:51;4.07;;;3.78;;
5454;SDS011;2750;49.050;9.250;2022-08-02T10:21:56;4.25;;;3.85;;
5454;SDS011;2750;49.050;9.250;2022-08-02T10:27:01;3.85;;;3.58;;
5454;SDS011;2750;49.050;9.250;2022-08-02T10:32:05;4.47;;;3.58;;
5454;SDS011;2750;49.050;9.250;2022-08-02T10:37:10;5.72;;;3.70;;
5454;SDS011;2750;49.050;9.250;2022-08-02T10:42:14;4.63;;;3.92;;
5454;SDS011;2750;49.050;9.250;2022-08-02T10:47:58;3.88;;;3.58;;
5454;SDS011;2750;49.050;9.250;2022-08-02T10:58:23;3.95;;;3.63;;
5454;SDS011;2750;49.050;9.250;2022-08-02T11:03:34;4.90;;;4.05;;
5454;SDS011;2750;49.050;9.250;2022-08-02T11:08:39;4.32;;;3.95;;
5454;SDS011;2750;49.050;9.250;2022-08-02T11:19:02;3.63;;;3.40;;
5454;SDS011;2750;49.050;9.250;2022-08-02T11:29:35;4.20;;;3.47;;
5454;SDS011;2750;49.050;9.250;2022-08-02T11:34:40;3.85;;;3.55;;
5454;SDS011;2750;49.050;9.250;2022-08-02T11:39:48;3.95;;;3.15;;
5454;SDS011;2750;49.050;9.250;2022-08-02T11:44:51;3.95;;;3.63;;
5454;SDS011;2750;49.050;9.250;2022-08-02T11:50:03;3.42;;;3.22;;
5454;SDS011;2750;49.050;9.250;2022-08-02T11:55:06;3.70;;;3.40;;
5454;SDS011;2750;49.050;9.250;2022-08-02T12:00:13;4.30;;;3.60;;
5454;SDS011;2750;49.050;9.250;2022-08-02T12:05:19;5.72;;;3.50;;
5454;SDS011;2750;49.050;9.250;2022-08-02T12:10:22;3.72;;;3.42;;
5454;SDS011;2750;49.050;9.250;2022-08-02T12:15:31;4.13;;;3.63;;
5454;SDS011;2750;49.050;9.250;2022-08-02T12:20:36;4.15;;;3.75;;
5454;SDS011;2750;49.050;9.250;2022-08-02T12:25:38;3.83;;;3.28;;
5454;SDS011;2750;49.050;9.250;2022-08-02T12:30:47;3.13;;;2.88;;
5454;SDS011;2750;49.050;9.250;2022-08-02T12:35:52;3.40;;;3.15;;
5454;SDS011;2750;49.050;9.250;2022-08-02T12:40:54;3.15;;;2.85;;
5454;SDS011;2750;49.050;9.250;2022-08-02T12:45:56;5.97;;;3.20;;
5454;SDS011;2750;49.050;9.250;2022-08-02T12:50:59;5.13;;;2.97;;
5454;SDS011;2750;49.050;9.250;2022-08-02T12:56:25;3.55;;;3.00;;
5454;SDS011;2750;49.050;9.250;2022-08-02T13:01:29;5.28;;;3.20;;
5454;SDS011;2750;49.050;9.250;2022-08-02T13:06:32;3.88;;;2.95;;
5454;SDS011;2750;49.050;9.250;2022-08-02T13:11:34;2.80;;;2.60;;
5454;SDS011;2750;49.050;9.250;2022-08-02T13:16:35;2.78;;;2.58;;
5454;SDS011;2750;49.050;9.250;2022-08-02T13:21:38;3.03;;;2.80;;
5454;SDS011;2750;49.050;9.250;2022-08-02T13:26:40;4.20;;;2.63;;
5454;SDS011;2750;49.050;9.250;2022-08-02T13:31:42;2.83;;;2.63;;
5454;SDS011;2750;49.050;9.250;2022-08-02T13:36:45;2.88;;;2.67;;
5454;SDS011;2750;49.050;9.250;2022-08-02T13:41:46;3.20;;;2.60;;
5454;SDS011;2750;49.050;9.250;2022-08-02T13:46:48;2.70;;;2.50;;
5454;SDS011;2750;49.050;9.250;2022-08-02T13:51:51;3.40;;;3.10;;
5454;SDS011;2750;49.050;9.250;2022-08-02T13:56:52;3.95;;;2.70;;
5454;SDS011;2750;49.050;9.250;2022-08-02T14:01:54;2.58;;;2.38;;
5454;SDS011;2750;49.050;9.250;2022-08-02T14:06:58;2.88;;;2.67;;
5454;SDS011;2750;49.050;9.250;2022-08-02T14:12:00;4.03;;;2.50;;
5454;SDS011;2750;49.050;9.250;2022-08-02T14:17:02;2.85;;;2.60;;
5454;SDS011;2750;49.050;9.250;2022-08-02T14:22:05;3.08;;;2.88;;
5454;SDS011;2750;49.050;9.250;2022-08-02T14:27:06;2.67;;;2.45;;
5454;SDS011;2750;49.050;9.250;2022-08-02T14:32:08;2.53;;;2.33;;
5454;SDS011;2750;49.050;9.250;2022-08-02T14:37:11;2.25;;;2.13;;
5454;SDS011;2750;49.050;9.250;2022-08-02T14:42:12;2.92;;;2.67;;
5454;SDS011;2750;49.050;9.250;2022-08-02T14:47:14;3.17;;;2.90;;
5454;SDS011;2750;49.050;9.250;2022-08-02T14:52:17;2.70;;;2.50;;
5454;SDS011;2750;49.050;9.250;2022-08-02T14:57:18;2.60;;;2.40;;
5454;SDS011;2750;49.050;9.250;2022-08-02T15:02:20;2.67;;;2.47;;
5454;SDS011;2750;49.050;9.250;2022-08-02T15:07:22;2.92;;;2.70;;
5454;SDS011;2750;49.050;9.250;2022-08-02T15:12:24;2.72;;;2.47;;
5454;SDS011;2750;49.050;9.250;2022-08-02T15:17:25;3.65;;;2.47;;
5454;SDS011;2750;49.050;9.250;2022-08-02T15:22:28;3.10;;;2.80;;
5454;SDS011;2750;49.050;9.250;2022-08-02T15:27:30;3.05;;;2.40;;
5454;SDS011;2750;49.050;9.250;2022-08-02T15:32:31;2.60;;;2.40;;
5454;SDS011;2750;49.050;9.250;2022-08-02T15:37:34;2.95;;;2.75;;
5454;SDS011;2750;49.050;9.250;2022-08-02T15:42:36;3.35;;;2.67;;
5454;SDS011;2750;49.050;9.250;2022-08-02T15:47:37;2.63;;;2.35;;
5454;SDS011;2750;49.050;9.250;2022-08-02T15:52:40;2.45;;;2.25;;
5454;SDS011;2750;49.050;9.250;2022-08-02T15:57:42;2.70;;;2.45;;
5454;SDS011;2750;49.050;9.250;2022-08-02T16:02:43;3.00;;;2.50;;
5454;SDS011;2750;49.050;9.250;2022-08-02T16:07:46;2.92;;;2.45;;
5454;SDS011;2750;49.050;9.250;2022-08-02T16:12:48;3.33;;;2.95;;
5454;SDS011;2750;49.050;9.250;2022-08-02T16:17:49;3.05;;;2.70;;
5454;SDS011;2750;49.050;9.250;2022-08-02T16:22:52;2.70;;;2.50;;
5454;SDS011;2750;49.050;9.250;2022-08-02T16:27:54;2.50;;;2.30;;
5454;SDS011;2750;49.050;9.250;2022-08-02T16:32:55;2.95;;;2.70;;
5454;SDS011;2750;49.050;9.250;2022-08-02T16:37:58;3.78;;;2.22;;
5454;SDS011;2750;49.050;9.250;2022-08-02T16:42:59;3.42;;;2.40;;
5454;SDS011;2750;49.050;9.250;2022-08-02T16:48:01;2.60;;;2.40;;
5454;SDS011;2750;49.050;9.250;2022-08-02T16:53:05;2.65;;;2.38;;
5454;SDS011;2750;49.050;9.250;2022-08-02T16:58:06;3.58;;;2.70;;
5454;SDS011;2750;49.050;9.250;2022-08-02T17:03:08;4.03;;;2.65;;
5454;SDS011;2750;49.050;9.250;2022-08-02T17:08:11;3.10;;;2.70;;
5454;SDS011;2750;49.050;9.250;2022-08-02T17:13:12;3.25;;;2.45;;
5454;SDS011;2750;49.050;9.250;2022-08-02T17:18:14;2.85;;;2.55;;
5454;SDS011;2750;49.050;9.250;2022-08-02T17:23:17;3.00;;;2.78;;
5454;SDS011;2750;49.050;9.250;2022-08-02T17:28:18;2.90;;;2.70;;
5454;SDS011;2750;49.050;9.250;2022-08-02T17:33:20;2.80;;;2.60;;
5454;SDS011;2750;49.050;9.250;2022-08-02T17:38:22;3.30;;;2.70;;
5454;SDS011;2750;49.050;9.250;2022-08-02T17:43:24;2.85;;;2.65;;
5454;SDS011;2750;49.050;9.250;2022-08-02T17:48:25;3.40;;;2.80;;
5454;SDS011;2750;49.050;9.250;2022-08-02T17:53:48;3.15;;;2.40;;
5454;SDS011;2750;49.050;9.250;2022-08-02T17:58:50;3.00;;;2.70;;
5454;SDS011;2750;49.050;9.250;2022-08-02T18:03:51;3.67;;;2.42;;
5454;SDS011;2750;49.050;9.250;2022-08-02T18:08:54;2.80;;;2.60;;
5454;SDS011;2750;49.050;9.250;2022-08-02T18:13:55;2.90;;;2.70;;
5454;SDS011;2750;49.050;9.250;2022-08-02T18:18:58;2.80;;;2.60;;
5454;SDS011;2750;49.050;9.250;2022-08-02T18:24:01;2.63;;;2.42;;
5454;SDS011;2750;49.050;9.250;2022-08-02T18:29:03;3.42;;;2.42;;
5454;SDS011;2750;49.050;9.250;2022-08-02T18:34:05;3.28;;;2.38;;
5454;SDS011;2750;49.050;9.250;2022-08-02T18:39:08;2.70;;;2.47;;
5454;SDS011;2750;49.050;9.250;2022-08-02T18:44:10;4.63;;;2.67;;
5454;SDS011;2750;49.050;9.250;2022-08-02T18:49:11;4.38;;;2.90;;
5454;SDS011;2750;49.050;9.250;2022-08-02T18:54:14;4.18;;;2.83;;
5454;SDS011;2750;49.050;9.250;2022-08-02T18:59:16;4.63;;;2.80;;
5454;SDS011;2750;49.050;9.250;2022-08-02T19:04:18;3.75;;;2.92;;
5454;SDS011;2750;49.050;9.250;2022-08-02T19:09:21;4.97;;;2.53;;
5454;SDS011;2750;49.050;9.250;2022-08-02T19:14:22;4.30;;;3.22;;
5454;SDS011;2750;49.050;9.250;2022-08-02T19:19:24;3.10;;;2.80;;
5454;SDS011;2750;49.050;9.250;2022-08-02T19:24:27;3.35;;;2.92;;
5454;SDS011;2750;49.050;9.250;2022-08-02T19:29:29;4.30;;;3.58;;
5454;SDS011;2750;49.050;9.250;2022-08-02T19:34:30;3.08;;;2.83;;
5454;SDS011;2750;49.050;9.250;2022-08-02T19:39:33;3.83;;;2.88;;
5454;SDS011;2750;49.050;9.250;2022-08-02T19:44:35;4.60;;;3.25;;
5454;SDS011;2750;49.050;9.250;2022-08-02T19:49:37;3.70;;;3.15;;
5454;SDS011;2750;49.050;9.250;2022-08-02T19:54:40;4.78;;;3.28;;
5454;SDS011;2750;49.050;9.250;2022-08-02T19:59:41;6.47;;;3.17;;
5454;SDS011;2750;49.050;9.250;2022-08-02T20:04:43;3.50;;;2.75;;
5454;SDS011;2750;49.050;9.250;2022-08-02T20:09:48;7.22;;;3.00;;
5454;SDS011;2750;49.050;9.250;2022-08-02T20:14:50;3.65;;;2.88;;
5454;SDS011;2750;49.050;9.250;2022-08-02T20:19:53;4.50;;;3.25;;
5454;SDS011;2750;49.050;9.250;2022-08-02T20:24:56;4.50;;;2.90;;
5454;SDS011;2750;49.050;9.250;2022-08-02T20:29:57;5.38;;;2.90;;
5454;SDS011;2750;49.050;9.250;2022-08-02T20:34:59;6.85;;;3.60;;
5454;SDS011;2750;49.050;9.250;2022-08-02T20:40:02;4.57;;;2.97;;
5454;SDS011;2750;49.050;9.250;2022-08-02T20:45:04;4.63;;;3.50;;
5454;SDS011;2750;49.050;9.250;2022-08-02T20:50:07;7.00;;;3.87;;
5454;SDS011;2750;49.050;9.250;2022-08-02T20:55:28;4.57;;;3.47;;
5454;SDS011;2750;49.050;9.250;2022-08-02T21:00:30;3.43;;;2.90;;
5454;SDS011;2750;49.050;9.250;2022-08-02T21:05:32;5.13;;;3.30;;
5454;SDS011;2750;49.050;9.250;2022-08-02T21:10:35;3.80;;;2.93;;
5454;SDS011;2750;49.050;9.250;2022-08-02T21:15:37;3.30;;;3.00;;
5454;SDS011;2750;49.050;9.250;2022-08-02T21:20:38;3.70;;;3.00;;
5454;SDS011;2750;49.050;9.250;2022-08-02T21:25:41;5.17;;;3.97;;
5454;SDS011;2750;49.050;9.250;2022-08-02T21:30:42;4.53;;;3.20;;
5454;SDS011;2750;49.050;9.250;2022-08-02T21:35:44;3.20;;;2.90;;
5454;SDS011;2750;49.050;9.250;2022-08-02T21:40:47;4.70;;;2.93;;
5454;SDS011;2750;49.050;9.250;2022-08-02T21:45:48;3.70;;;2.90;;
5454;SDS011;2750;49.050;9.250;2022-08-02T21:50:49;3.80;;;3.30;;
5454;SDS011;2750;49.050;9.250;2022-08-02T21:55:52;3.57;;;3.27;;
5454;SDS011;2750;49.050;9.250;2022-08-02T22:00:54;5.13;;;3.40;;
5454;SDS011;2750;49.050;9.250;2022-08-02T22:05:56;4.53;;;3.60;;
5454;SDS011;2750;49.050;9.250;2022-08-02T22:10:59;4.20;;;3.10;;
5454;SDS011;2750;49.050;9.250;2022-08-02T22:16:03;4.03;;;3.40;;
5454;SDS011;2750;49.050;9.250;2022-08-02T22:21:05;3.30;;;3.00;;
5454;SDS011;2750;49.050;9.250;2022-08-02T22:26:08;3.13;;;2.83;;
5454;SDS011;2750;49.050;9.250;2022-08-02T22:31:09;5.63;;;3.10;;
5454;SDS011;2750;49.050;9.250;2022-08-02T22:36:11;3.03;;;2.80;;
5454;SDS011;2750;49.050;9.250;2022-08-02T22:41:14;3.67;;;2.73;;
5454;SDS011;2750;49.050;9.250;2022-08-02T22:46:16;4.57;;;2.80;;
5454;SDS011;2750;49.050;9.250;2022-08-02T22:51:17;3.97;;;3.10;;
5454;SDS011;2750;49.050;9.250;2022-08-02T22:56:20;3.00;;;2.80;;
5454;SDS011;2750;49.050;9.250;2022-08-02T23:01:21;3.33;;;2.90;;
5454;SDS011;2750;49.050;9.250;2022-08-02T23:06:23;3.37;;;3.00;;
5454;SDS011;2750;49.050;9.250;2022-08-02T23:11:26;4.70;;;2.73;;
5454;SDS011;2750;49.050;9.250;2022-08-02T23:16:28;4.13;;;3.83;;
5454;SDS011;2750;49.050;9.250;2022-08-02T23:22:01;3.77;;;3.40;;
5454;SDS011;2750;49.050;9.250;2022-08-02T23:27:04;3.50;;;3.20;;
5454;SDS011;2750;49.050;9.250;2022-08-02T23:32:06;3.20;;;2.90;;
5454;SDS011;2750;49.050;9.250;2022-08-02T23:37:08;3.27;;;2.97;;
5454;SDS011;2750;49.050;9.250;2022-08-02T23:42:12;2.87;;;2.67;;
5454;SDS011;2750;49.050;9.250;2022-08-02T23:47:13;4.23;;;3.40;;
5454;SDS011;2750;49.050;9.250;2022-08-02T23:52:16;3.23;;;3.03;;
5454;SDS011;2750;49.050;9.250;2022-08-02T23:57:18;3.57;;;3.37;;
